createdAt,value
2022-12-01T00:01:20.083Z,55.27
2022-12-01T00:03:48.281Z,57.33
2022-12-01T00:06:21.037Z,53.40
2022-12-01T00:09:13.989Z,54.40
2022-12-01T00:11:43.124Z,51.50
2022-12-01T00:14:10.861Z,54.10
2022-12-01T00:16:40.519Z,53.53
2022-12-01T00:19:08.735Z,47.40
2022-12-01T00:21:36.553Z,54.87
2022-12-01T00:24:06.267Z,52.50
2022-12-01T00:26:34.015Z,58.53
2022-12-01T00:29:01.740Z,62.83
2022-12-01T00:31:29.626Z,57.37
2022-12-01T00:33:57.431Z,59.77
2022-12-01T00:36:25.574Z,54.10
2022-12-01T00:38:54.532Z,62.00
2022-12-01T00:41:24.880Z,56.90
2022-12-01T00:43:53.220Z,69.87
2022-12-01T00:46:22.368Z,64.33
2022-12-01T00:48:50.151Z,62.73
2022-12-01T00:51:17.981Z,51.73
2022-12-01T00:53:45.943Z,56.17
2022-12-01T00:56:13.990Z,56.43
2022-12-01T00:58:43.182Z,58.97
2022-12-01T01:01:14.281Z,54.23
2022-12-01T01:03:42.144Z,52.70
2022-12-01T01:06:12.265Z,57.93
2022-12-01T01:08:40.775Z,61.20
2022-12-01T01:11:09.828Z,52.17
2022-12-01T01:13:38.482Z,51.60
2022-12-01T01:16:11.185Z,62.23
2022-12-01T01:18:39.122Z,54.83
2022-12-01T01:21:09.511Z,50.87
2022-12-01T01:23:38.796Z,50.10
2022-12-01T01:26:08.442Z,56.50
2022-12-01T01:28:37.029Z,50.27
2022-12-01T01:31:08.224Z,52.17
2022-12-01T01:33:36.401Z,57.83
2022-12-01T01:36:05.193Z,52.30
2022-12-01T01:38:33.381Z,59.17
2022-12-01T01:41:01.901Z,54.13
2022-12-01T01:43:47.044Z,56.13
2022-12-01T01:46:18.170Z,58.83
2022-12-01T01:49:12.657Z,61.17
2022-12-01T01:51:44.625Z,56.93
2022-12-01T01:54:15.979Z,58.10
2022-12-01T01:56:45.601Z,55.40
2022-12-01T01:59:16.273Z,66.10
2022-12-01T02:01:46.007Z,62.47
2022-12-01T02:04:16.928Z,63.07
2022-12-01T02:06:44.669Z,62.87
2022-12-01T02:09:13.314Z,63.87
2022-12-01T02:12:11.443Z,57.87
2022-12-01T02:15:05.287Z,66.37
2022-12-01T02:17:43.319Z,59.93
2022-12-01T02:21:00.449Z,67.77
2022-12-01T02:24:09.739Z,58.83
2022-12-01T02:26:47.621Z,63.03
2022-12-01T02:29:48.459Z,60.00
2022-12-01T02:32:22.693Z,65.07
2022-12-01T02:34:58.223Z,59.87
2022-12-01T02:37:32.245Z,63.90
2022-12-01T02:40:07.021Z,56.87
2022-12-01T02:42:50.617Z,70.80
2022-12-01T02:45:24.685Z,71.73
2022-12-01T02:47:57.276Z,68.07
2022-12-01T02:50:27.995Z,80.07
2022-12-01T02:52:56.446Z,70.70
2022-12-01T02:55:24.269Z,65.67
2022-12-01T02:57:52.000Z,74.10
2022-12-01T03:00:20.305Z,63.77
2022-12-01T03:03:08.640Z,78.87
2022-12-01T03:05:46.907Z,67.23
2022-12-01T03:08:35.345Z,65.23
2022-12-01T03:11:04.606Z,87.53
2022-12-01T03:13:39.284Z,76.47
2022-12-01T03:16:13.480Z,69.10
2022-12-01T03:18:44.528Z,74.20
2022-12-01T03:21:20.950Z,82.03
2022-12-01T03:23:51.608Z,71.33
2022-12-01T03:26:23.315Z,67.90
2022-12-01T03:29:04.349Z,67.00
2022-12-01T03:31:37.643Z,67.37
2022-12-01T03:34:11.947Z,70.27
2022-12-01T03:36:45.397Z,58.97
2022-12-01T03:39:18.176Z,71.13
2022-12-01T03:41:54.391Z,66.50
2022-12-01T03:44:26.480Z,67.80
2022-12-01T03:46:58.202Z,65.33
2022-12-01T03:49:26.938Z,65.47
2022-12-01T03:52:03.606Z,67.23
2022-12-01T03:54:45.280Z,68.10
2022-12-01T03:57:16.736Z,65.73
2022-12-01T03:59:46.964Z,60.53
2022-12-01T04:02:15.221Z,58.87
2022-12-01T04:04:43.069Z,70.50
2022-12-01T04:07:13.480Z,59.83
2022-12-01T04:09:42.135Z,71.43
2022-12-01T04:12:33.107Z,66.07
2022-12-01T04:15:02.749Z,69.77
2022-12-01T04:17:31.219Z,76.33
2022-12-01T04:19:59.149Z,66.67
2022-12-01T04:22:28.649Z,65.63
2022-12-01T04:24:56.489Z,60.87
2022-12-01T04:27:24.271Z,52.60
2022-12-01T04:29:52.170Z,67.30
2022-12-01T04:32:20.228Z,59.23
2022-12-01T04:34:49.036Z,52.70
2022-12-01T04:37:17.030Z,57.47
2022-12-01T04:39:46.291Z,53.20
2022-12-01T04:42:14.136Z,57.90
2022-12-01T04:44:41.901Z,53.70
2022-12-01T04:47:09.699Z,52.87
2022-12-01T04:49:37.603Z,64.87
2022-12-01T04:52:05.830Z,69.00
2022-12-01T04:54:33.585Z,63.50
2022-12-01T04:57:02.816Z,54.03
2022-12-01T04:59:30.591Z,61.40
2022-12-01T05:01:58.557Z,61.17
2022-12-01T05:04:26.645Z,55.30
2022-12-01T05:06:55.508Z,55.70
2022-12-01T05:09:23.333Z,57.03
2022-12-01T05:11:51.087Z,59.53
2022-12-01T05:14:20.187Z,60.83
2022-12-01T05:16:51.020Z,56.17
2022-12-01T05:19:36.258Z,58.03
2022-12-01T05:22:04.066Z,57.17
2022-12-01T05:24:31.851Z,56.50
2022-12-01T05:27:00.660Z,59.93
2022-12-01T05:29:29.749Z,47.13
2022-12-01T05:31:58.656Z,50.87
2022-12-01T05:34:26.780Z,50.77
2022-12-01T05:36:54.595Z,53.50
2022-12-01T05:39:22.306Z,58.90
2022-12-01T05:41:50.004Z,51.83
2022-12-01T05:44:17.884Z,68.30
2022-12-01T05:46:47.057Z,57.23
2022-12-01T05:49:15.124Z,54.63
2022-12-01T05:51:44.188Z,56.90
2022-12-01T05:54:11.873Z,58.87
2022-12-01T05:56:39.741Z,48.57
2022-12-01T05:59:09.484Z,57.43
2022-12-01T06:01:37.209Z,58.37
2022-12-01T06:04:06.619Z,56.73
2022-12-01T06:06:34.377Z,62.10
2022-12-01T06:09:02.466Z,56.60
2022-12-01T06:11:30.305Z,57.33
2022-12-01T06:13:58.172Z,59.10
2022-12-01T06:16:25.951Z,64.43
2022-12-01T06:18:57.825Z,53.90
2022-12-01T06:21:26.891Z,59.43
2022-12-01T06:23:54.632Z,51.90
2022-12-01T06:26:22.500Z,61.60
2022-12-01T06:28:50.248Z,55.93
2022-12-01T06:31:18.048Z,52.60
2022-12-01T06:33:45.761Z,59.27
2022-12-01T06:36:13.730Z,54.87
2022-12-01T06:38:42.769Z,57.33
2022-12-01T06:41:10.464Z,57.00
2022-12-01T06:43:38.695Z,58.20
2022-12-01T06:46:06.653Z,56.13
2022-12-01T06:48:34.492Z,51.77
2022-12-01T06:51:02.626Z,54.73
2022-12-01T06:53:31.148Z,48.50
2022-12-01T06:56:02.395Z,54.93
2022-12-01T06:58:30.320Z,44.73
2022-12-01T07:00:58.843Z,49.03
2022-12-01T07:03:27.004Z,50.50
2022-12-01T07:05:59.190Z,48.70
2022-12-01T07:08:27.316Z,52.73
2022-12-01T07:10:59.498Z,55.00
2022-12-01T07:13:33.442Z,50.67
2022-12-01T07:16:03.004Z,54.00
2022-12-01T07:18:31.638Z,55.30
2022-12-01T07:21:01.265Z,57.03
2022-12-01T07:23:29.436Z,58.90
2022-12-01T07:26:01.347Z,63.43
2022-12-01T07:28:30.865Z,69.53
2022-12-01T07:31:03.315Z,57.57
2022-12-01T07:33:31.269Z,64.37
2022-12-01T07:35:59.460Z,59.07
2022-12-01T07:38:28.881Z,59.20
2022-12-01T07:40:56.620Z,61.80
2022-12-01T07:43:24.382Z,54.27
2022-12-01T07:45:53.523Z,56.77
2022-12-01T07:48:21.673Z,51.17
2022-12-01T07:50:49.342Z,59.20
2022-12-01T07:53:17.002Z,57.70
2022-12-01T07:55:49.406Z,61.03
2022-12-01T07:58:17.189Z,62.80
2022-12-01T08:00:44.915Z,55.60
2022-12-01T08:03:14.170Z,56.13
2022-12-01T08:05:41.989Z,60.27
2022-12-01T08:08:09.795Z,57.07
2022-12-01T08:10:37.893Z,58.20
2022-12-01T08:13:05.734Z,54.77
2022-12-01T08:15:33.498Z,43.47
2022-12-01T08:18:03.609Z,47.30
2022-12-01T08:20:32.666Z,52.73
2022-12-01T08:23:01.675Z,47.53
2022-12-01T08:25:29.600Z,53.83
2022-12-01T08:27:57.817Z,50.20
2022-12-01T08:30:25.517Z,45.67
2022-12-01T08:32:55.028Z,50.50
2022-12-01T08:35:22.799Z,38.63
2022-12-01T08:37:54.396Z,53.63
2022-12-01T08:40:23.218Z,55.10
2022-12-01T08:42:53.013Z,58.93
2022-12-01T08:45:22.865Z,45.30
2022-12-01T08:47:50.683Z,47.07
2022-12-01T08:50:18.550Z,52.03
2022-12-01T08:52:46.301Z,49.60
2022-12-01T08:55:15.342Z,46.67
2022-12-01T08:57:43.011Z,40.83
2022-12-01T09:00:12.304Z,44.33
2022-12-01T09:02:40.123Z,38.00
2022-12-01T09:05:08.652Z,40.40
2022-12-01T09:07:36.441Z,40.60
2022-12-01T09:10:04.378Z,41.33
2022-12-01T09:12:33.502Z,50.73
2022-12-01T09:15:01.351Z,41.70
2022-12-01T09:17:29.495Z,41.90
2022-12-01T09:19:57.187Z,35.43
2022-12-01T09:22:24.915Z,38.80
2022-12-01T09:24:52.732Z,38.50
2022-12-01T09:27:20.461Z,38.80
2022-12-01T09:29:49.746Z,35.00
2022-12-01T09:32:17.686Z,37.10
2022-12-01T09:34:45.589Z,33.27
2022-12-01T09:37:13.294Z,34.47
2022-12-01T09:39:40.996Z,30.87
2022-12-01T09:42:13.777Z,37.60
2022-12-01T09:44:46.712Z,32.77
2022-12-01T09:47:22.969Z,34.23
2022-12-01T09:49:56.871Z,35.37
2022-12-01T09:52:27.860Z,35.40
2022-12-01T09:54:56.919Z,29.73
2022-12-01T09:57:31.844Z,31.70
2022-12-01T10:00:02.494Z,31.17
2022-12-01T10:02:44.625Z,28.93
2022-12-01T10:05:16.599Z,32.07
2022-12-01T10:07:48.415Z,34.73
2022-12-01T10:10:21.690Z,27.70
2022-12-01T10:12:49.478Z,30.30
2022-12-01T10:15:28.418Z,29.33
2022-12-01T10:18:17.781Z,33.10
2022-12-01T10:20:49.937Z,35.60
2022-12-01T10:23:37.034Z,31.13
2022-12-01T10:26:14.624Z,37.30
2022-12-01T10:28:54.030Z,32.30
2022-12-01T10:31:27.380Z,23.03
2022-12-01T10:34:08.985Z,31.40
2022-12-01T10:36:36.685Z,28.30
2022-12-01T10:39:07.693Z,35.20
2022-12-01T10:41:38.593Z,40.40
2022-12-01T10:44:08.119Z,35.33
2022-12-01T10:46:42.311Z,35.23
2022-12-01T10:49:13.469Z,37.03
2022-12-01T10:51:50.949Z,32.80
2022-12-01T10:54:19.251Z,36.47
2022-12-01T10:56:49.668Z,39.60
2022-12-01T10:59:26.780Z,35.17
2022-12-01T11:01:55.345Z,40.63
2022-12-01T11:04:36.364Z,37.40
2022-12-01T11:07:05.387Z,31.87
2022-12-01T11:09:33.688Z,32.57
2022-12-01T11:12:03.726Z,33.93
2022-12-01T11:14:42.053Z,38.13
2022-12-01T11:17:28.921Z,31.00
2022-12-01T11:19:58.482Z,34.13
2022-12-01T11:22:30.781Z,34.10
2022-12-01T11:25:01.584Z,39.43
2022-12-01T11:27:32.940Z,38.03
2022-12-01T11:30:04.884Z,34.97
2022-12-01T11:32:35.204Z,32.97
2022-12-01T11:35:08.540Z,33.07
2022-12-01T11:37:50.420Z,34.00
2022-12-01T11:40:30.956Z,38.53
2022-12-01T11:43:01.116Z,34.33
2022-12-01T11:45:32.282Z,31.37
2022-12-01T11:48:04.154Z,32.00
2022-12-01T11:50:35.446Z,40.60
2022-12-01T11:53:04.048Z,43.23
2022-12-01T11:55:32.650Z,37.17
2022-12-01T11:58:02.878Z,38.33
2022-12-01T12:00:39.447Z,36.63
2022-12-01T12:03:19.733Z,32.67
2022-12-01T12:09:20.918Z,29.70
2022-12-01T12:11:58.495Z,38.80
2022-12-01T12:14:46.369Z,41.53
2022-12-01T12:17:27.608Z,36.53
2022-12-01T12:20:12.936Z,36.10
2022-12-01T12:22:55.475Z,35.10
2022-12-01T12:25:35.964Z,32.90
2022-12-01T12:28:25.025Z,38.30
2022-12-01T12:31:04.204Z,44.00
2022-12-01T12:34:00.467Z,36.53
2022-12-01T12:36:41.872Z,39.27
2022-12-01T12:39:31.140Z,37.43
2022-12-01T12:41:59.640Z,31.77
2022-12-01T12:44:44.657Z,33.70
2022-12-01T12:47:29.136Z,31.73
2022-12-01T12:50:10.732Z,34.70
2022-12-01T12:52:42.649Z,31.47
2022-12-01T12:55:19.609Z,34.13
2022-12-01T12:57:53.217Z,37.53
2022-12-01T13:00:23.979Z,40.60
2022-12-01T13:02:55.637Z,39.20
2022-12-01T13:05:28.302Z,36.10
2022-12-01T13:08:00.652Z,34.27
2022-12-01T13:10:38.133Z,34.33
2022-12-01T13:13:18.351Z,33.97
2022-12-01T13:15:48.370Z,37.30
2022-12-01T13:18:26.440Z,29.47
2022-12-01T13:20:58.192Z,42.30
2022-12-01T13:23:27.098Z,33.70
2022-12-01T13:26:00.101Z,32.83
2022-12-01T13:28:30.835Z,38.77
2022-12-01T13:31:01.311Z,33.20
2022-12-01T13:33:29.721Z,36.93
2022-12-01T13:36:29.907Z,36.70
2022-12-01T13:38:57.916Z,32.50
2022-12-01T13:41:30.372Z,33.83
2022-12-01T13:44:01.381Z,33.73
2022-12-01T13:46:32.580Z,38.70
2022-12-01T13:49:01.995Z,32.70
2022-12-01T13:52:08.696Z,34.43
2022-12-01T13:54:37.641Z,32.67
2022-12-01T13:57:13.348Z,32.63
2022-12-01T14:00:05.642Z,32.43
2022-12-01T14:02:42.136Z,36.60
2022-12-01T14:05:44.756Z,38.90
2022-12-01T14:08:22.622Z,29.53
2022-12-01T14:10:57.581Z,31.57
2022-12-01T14:13:28.086Z,37.27
2022-12-01T14:15:58.734Z,36.80
2022-12-01T14:18:35.369Z,33.40
2022-12-01T14:21:06.084Z,31.73
2022-12-01T14:23:36.293Z,34.40
2022-12-01T14:26:16.740Z,33.13
2022-12-01T14:29:21.122Z,33.90
2022-12-01T14:32:23.846Z,33.00
2022-12-01T14:35:02.298Z,34.00
2022-12-01T14:37:54.301Z,32.60
2022-12-01T14:40:31.119Z,29.13
2022-12-01T14:43:17.369Z,33.40
2022-12-01T14:45:57.087Z,35.77
2022-12-01T14:48:33.295Z,36.37
2022-12-01T14:51:17.421Z,35.53
2022-12-01T14:53:47.360Z,35.90
2022-12-01T14:56:19.932Z,33.23
2022-12-01T14:58:56.263Z,26.30
2022-12-01T15:01:25.161Z,32.13
2022-12-01T15:03:58.771Z,39.77
2022-12-01T15:06:29.400Z,33.73
2022-12-01T15:12:02.144Z,35.30
2022-12-01T15:14:35.586Z,34.67
2022-12-01T15:17:05.449Z,34.57
2022-12-01T15:19:37.812Z,34.97
2022-12-01T15:22:13.484Z,33.20
2022-12-01T15:24:41.972Z,32.10
2022-12-01T15:27:25.966Z,28.13
2022-12-01T15:29:54.168Z,35.03
2022-12-01T15:32:24.649Z,39.70
2022-12-01T15:34:56.839Z,55.93
2022-12-01T15:37:31.595Z,37.60
2022-12-01T15:40:43.443Z,34.67
2022-12-01T15:43:02.656Z,35.93
2022-12-01T15:45:30.404Z,44.57
2022-12-01T15:47:59.531Z,41.97
2022-12-01T15:50:31.294Z,37.80
2022-12-01T15:53:00.470Z,33.00
2022-12-01T15:55:31.079Z,33.17
2022-12-01T15:58:00.191Z,32.90
2022-12-01T16:00:28.030Z,29.07
2022-12-01T16:02:58.136Z,37.60
2022-12-01T16:05:28.362Z,31.73
2022-12-01T16:08:13.953Z,31.77
2022-12-01T16:10:42.044Z,35.47
2022-12-01T16:13:44.354Z,39.70
2022-12-01T16:16:28.530Z,36.53
2022-12-01T16:18:57.967Z,36.57
2022-12-01T16:21:26.928Z,34.60
2022-12-01T16:24:04.221Z,33.40
2022-12-01T16:26:34.116Z,31.03
2022-12-01T16:29:01.841Z,30.03
2022-12-01T16:31:29.700Z,32.53
2022-12-01T16:34:09.823Z,37.17
2022-12-01T16:36:47.025Z,27.43
2022-12-01T16:39:16.371Z,33.43
2022-12-01T16:41:46.649Z,32.27
2022-12-01T16:44:28.652Z,50.00
2022-12-01T16:46:56.861Z,36.13
2022-12-01T16:49:24.810Z,35.53
2022-12-01T16:51:57.188Z,31.53
2022-12-01T16:54:28.319Z,36.50
2022-12-01T16:56:56.173Z,31.83
2022-12-01T16:59:24.069Z,38.03
2022-12-01T17:01:51.986Z,34.97
2022-12-01T17:04:20.021Z,34.83
2022-12-01T17:06:48.009Z,35.90
2022-12-01T17:09:16.087Z,38.50
2022-12-01T17:11:45.596Z,41.10
2022-12-01T17:14:13.747Z,35.47
2022-12-01T17:16:41.634Z,38.47
2022-12-01T17:19:09.690Z,34.70
2022-12-01T17:21:37.533Z,39.97
2022-12-01T17:24:06.839Z,33.10
2022-12-01T17:26:34.902Z,35.20
2022-12-01T17:29:04.507Z,33.83
2022-12-01T17:31:32.302Z,34.90
2022-12-01T17:34:00.096Z,32.23
2022-12-01T17:36:27.815Z,33.57
2022-12-01T17:38:56.010Z,35.13
2022-12-01T17:41:25.443Z,33.17
2022-12-01T17:43:53.258Z,35.47
2022-12-01T17:46:23.386Z,41.47
2022-12-01T17:48:51.480Z,37.07
2022-12-01T17:51:19.465Z,42.57
2022-12-01T17:53:47.431Z,39.50
2022-12-01T17:56:17.379Z,41.47
2022-12-01T17:58:45.519Z,38.97
2022-12-01T18:01:17.819Z,49.20
2022-12-01T18:03:47.599Z,39.00
2022-12-01T18:06:16.997Z,42.57
2022-12-01T18:08:44.939Z,36.23
2022-12-01T18:11:18.900Z,39.87
2022-12-01T18:13:48.689Z,48.97
2022-12-01T18:16:19.482Z,42.83
2022-12-01T18:18:49.086Z,43.17
2022-12-01T18:21:19.042Z,35.70
2022-12-01T18:23:50.774Z,39.70
2022-12-01T18:26:19.501Z,42.20
2022-12-01T18:28:47.294Z,36.70
2022-12-01T18:31:17.144Z,41.77
2022-12-01T18:33:46.267Z,41.13
2022-12-01T18:36:17.516Z,39.20
2022-12-01T18:38:46.795Z,44.73
2022-12-01T18:41:15.745Z,37.87
2022-12-01T18:43:43.925Z,39.73
2022-12-01T18:46:13.332Z,40.63
2022-12-01T18:48:45.717Z,47.83
2022-12-01T18:52:19.162Z,44.87
2022-12-01T18:54:48.505Z,39.37
2022-12-01T18:57:28.034Z,46.93
2022-12-01T18:59:55.867Z,39.40
2022-12-01T19:02:23.706Z,44.70
2022-12-01T19:04:51.900Z,38.60
2022-12-01T19:07:22.906Z,45.93
2022-12-01T19:09:54.285Z,43.10
2022-12-01T19:12:22.122Z,39.97
2022-12-01T19:14:52.995Z,37.53
2022-12-01T19:17:21.244Z,39.20
2022-12-01T19:19:49.033Z,36.97
2022-12-01T19:22:18.907Z,40.47
2022-12-01T19:24:52.615Z,43.20
2022-12-01T19:27:23.126Z,43.93
2022-12-01T19:29:52.183Z,47.27
2022-12-01T19:32:20.553Z,42.70
2022-12-01T19:34:48.791Z,43.77
2022-12-01T19:37:16.848Z,45.77
2022-12-01T19:39:44.759Z,40.17
2022-12-01T19:42:12.646Z,39.33
2022-12-01T19:44:41.810Z,39.60
2022-12-01T19:47:10.119Z,36.70
2022-12-01T19:49:37.957Z,37.80
2022-12-01T19:52:06.551Z,37.33
2022-12-01T19:54:35.376Z,37.67
2022-12-01T19:57:03.101Z,36.50
2022-12-01T19:59:30.918Z,35.50
2022-12-01T20:02:00.114Z,38.40
2022-12-01T20:04:27.856Z,52.67
2022-12-01T20:06:55.629Z,40.90
2022-12-01T20:09:23.659Z,36.30
2022-12-01T20:11:51.613Z,34.67
2022-12-01T20:14:19.479Z,40.10
2022-12-01T20:16:47.296Z,39.67
2022-12-01T20:19:16.461Z,39.30
2022-12-01T20:21:44.264Z,43.20
2022-12-01T20:24:14.465Z,41.40
2022-12-01T20:26:44.316Z,39.10
2022-12-01T20:29:15.529Z,36.43
2022-12-01T20:31:44.297Z,38.17
2022-12-01T20:34:14.701Z,42.67
2022-12-01T20:36:44.870Z,34.37
2022-12-01T20:39:13.540Z,35.50
2022-12-01T20:41:41.678Z,39.47
2022-12-01T20:44:12.528Z,40.93
2022-12-01T20:46:41.860Z,38.30
2022-12-01T20:49:10.469Z,41.30
2022-12-01T20:51:38.209Z,29.63
2022-12-01T20:56:58.558Z,32.27
2022-12-01T20:59:26.359Z,38.63
2022-12-01T21:01:54.295Z,38.13
2022-12-01T21:04:22.254Z,38.80
2022-12-01T21:06:56.814Z,35.13
2022-12-01T21:09:26.356Z,49.47
2022-12-01T21:12:40.538Z,45.27
2022-12-01T21:15:18.699Z,40.50
2022-12-01T21:17:52.571Z,38.67
2022-12-01T21:20:27.059Z,32.53
2022-12-01T21:23:03.312Z,35.50
2022-12-01T21:25:33.099Z,39.07
2022-12-01T21:28:11.621Z,38.53
2022-12-01T21:30:47.434Z,47.13
2022-12-01T21:33:27.153Z,40.50
2022-12-01T21:36:27.043Z,45.73
2022-12-01T21:38:58.334Z,40.23
2022-12-01T21:41:29.623Z,42.27
2022-12-01T21:44:03.613Z,47.03
2022-12-01T21:46:31.949Z,40.77
2022-12-01T21:49:01.853Z,38.23
2022-12-01T21:51:30.797Z,39.40
2022-12-01T21:53:59.282Z,42.97
2022-12-01T21:56:31.596Z,44.67
2022-12-01T21:59:05.533Z,46.00
2022-12-01T22:01:35.306Z,34.43
2022-12-01T22:04:30.342Z,39.33
2022-12-01T22:06:58.999Z,35.13
2022-12-01T22:09:30.453Z,46.60
2022-12-01T22:12:02.576Z,42.17
2022-12-01T22:14:33.955Z,42.87
2022-12-01T22:17:17.617Z,48.37
2022-12-01T22:19:56.551Z,46.43
2022-12-01T22:22:26.298Z,52.20
2022-12-01T22:24:57.391Z,43.90
2022-12-01T22:27:36.028Z,39.47
2022-12-01T22:30:16.048Z,44.50
2022-12-01T22:32:57.341Z,46.67
2022-12-01T22:35:32.396Z,42.70
2022-12-01T22:38:27.479Z,43.07
2022-12-01T22:41:56.862Z,42.63
2022-12-01T22:44:27.621Z,42.77
2022-12-01T22:47:00.024Z,44.40
2022-12-01T22:49:27.959Z,49.13
2022-12-01T22:52:01.232Z,46.80
2022-12-01T22:54:33.377Z,51.53
2022-12-01T22:57:12.838Z,49.00
2022-12-01T22:59:43.858Z,46.73
2022-12-01T23:02:21.305Z,43.07
2022-12-01T23:04:51.026Z,49.43
2022-12-01T23:07:32.647Z,46.40
2022-12-01T23:10:13.375Z,44.00
2022-12-01T23:12:41.660Z,47.40
2022-12-01T23:15:36.231Z,43.90
2022-12-01T23:18:12.698Z,48.50
2022-12-01T23:20:41.946Z,42.47
2022-12-01T23:23:14.438Z,44.43
2022-12-01T23:25:43.469Z,44.90
2022-12-01T23:28:12.892Z,54.47
2022-12-01T23:30:43.707Z,48.67
2022-12-01T23:33:17.077Z,49.00
2022-12-01T23:35:48.016Z,49.90
2022-12-01T23:38:21.990Z,56.57
2022-12-01T23:40:50.722Z,67.43
2022-12-01T23:43:21.569Z,46.67
2022-12-01T23:45:56.573Z,51.53
2022-12-01T23:48:29.218Z,42.37
2022-12-01T23:50:57.005Z,47.73
2022-12-01T23:53:30.425Z,50.93
2022-12-01T23:56:02.898Z,50.60
2022-12-01T23:58:30.708Z,51.03
